sensor_id;sensor_type;location;lat;lon;timestamp;temperature;humidity
73277;DHT22;61501;43.316;5.372;2022-09-28T00:03:37;17.70;77.40
73277;DHT22;61501;43.316;5.372;2022-09-28T00:06:07;17.70;78.00
73277;DHT22;61501;43.316;5.372;2022-09-28T00:08:34;17.70;76.70
73277;DHT22;61501;43.316;5.372;2022-09-28T00:11:01;17.70;77.90
73277;DHT22;61501;43.316;5.372;2022-09-28T00:13:27;17.70;78.80
73277;DHT22;61501;43.316;5.372;2022-09-28T00:18:26;17.70;81.20
73277;DHT22;61501;43.316;5.372;2022-09-28T00:21:12;17.70;82.10
73277;DHT22;61501;43.316;5.372;2022-09-28T00:23:38;17.70;83.00
73277;DHT22;61501;43.316;5.372;2022-09-28T00:26:24;17.60;83.90
73277;DHT22;61501;43.316;5.372;2022-09-28T00:28:54;17.60;85.70
73277;DHT22;61501;43.316;5.372;2022-09-28T00:31:20;17.60;87.00
73277;DHT22;61501;43.316;5.372;2022-09-28T00:33:53;17.60;87.40
73277;DHT22;61501;43.316;5.372;2022-09-28T00:36:21;17.60;88.10
73277;DHT22;61501;43.316;5.372;2022-09-28T00:38:47;17.60;88.70
73277;DHT22;61501;43.316;5.372;2022-09-28T00:41:14;17.50;89.10
73277;DHT22;61501;43.316;5.372;2022-09-28T00:43:39;17.50;89.80
73277;DHT22;61501;43.316;5.372;2022-09-28T00:49:14;17.50;90.30
73277;DHT22;61501;43.316;5.372;2022-09-28T00:51:43;17.50;90.50
73277;DHT22;61501;43.316;5.372;2022-09-28T00:54:11;17.60;90.60
73277;DHT22;61501;43.316;5.372;2022-09-28T00:56:41;17.50;90.30
73277;DHT22;61501;43.316;5.372;2022-09-28T00:59:10;17.60;90.40
73277;DHT22;61501;43.316;5.372;2022-09-28T01:01:36;17.50;90.30
73277;DHT22;61501;43.316;5.372;2022-09-28T01:04:02;17.60;90.80
73277;DHT22;61501;43.316;5.372;2022-09-28T01:06:32;17.50;91.00
73277;DHT22;61501;43.316;5.372;2022-09-28T01:09:00;17.50;91.20
73277;DHT22;61501;43.316;5.372;2022-09-28T01:11:32;17.60;91.30
73277;DHT22;61501;43.316;5.372;2022-09-28T01:13:59;17.60;91.10
73277;DHT22;61501;43.316;5.372;2022-09-28T01:25:25;17.50;91.40
73277;DHT22;61501;43.316;5.372;2022-09-28T01:28:03;17.50;91.50
73277;DHT22;61501;43.316;5.372;2022-09-28T01:30:37;17.50;92.30
73277;DHT22;61501;43.316;5.372;2022-09-28T01:33:10;17.40;91.90
73277;DHT22;61501;43.316;5.372;2022-09-28T01:35:44;17.40;92.30
73277;DHT22;61501;43.316;5.372;2022-09-28T01:38:19;17.50;92.40
73277;DHT22;61501;43.316;5.372;2022-09-28T01:40:46;17.50;92.90
73277;DHT22;61501;43.316;5.372;2022-09-28T01:43:25;17.50;92.80
73277;DHT22;61501;43.316;5.372;2022-09-28T01:46:11;17.40;92.60
73277;DHT22;61501;43.316;5.372;2022-09-28T01:48:58;17.50;92.40
73277;DHT22;61501;43.316;5.372;2022-09-28T01:51:34;17.60;92.60
73277;DHT22;61501;43.316;5.372;2022-09-28T01:54:10;17.60;92.80
73277;DHT22;61501;43.316;5.372;2022-09-28T01:56:45;17.60;92.90
73277;DHT22;61501;43.316;5.372;2022-09-28T01:59:16;17.60;92.90
73277;DHT22;61501;43.316;5.372;2022-09-28T02:01:59;17.60;93.30
73277;DHT22;61501;43.316;5.372;2022-09-28T02:04:34;17.70;93.40
73277;DHT22;61501;43.316;5.372;2022-09-28T02:07:06;17.70;94.00
73277;DHT22;61501;43.316;5.372;2022-09-28T02:09:38;17.60;93.60
73277;DHT22;61501;43.316;5.372;2022-09-28T02:12:12;17.60;93.10
73277;DHT22;61501;43.316;5.372;2022-09-28T02:14:42;17.60;92.50
73277;DHT22;61501;43.316;5.372;2022-09-28T02:17:10;17.60;92.30
73277;DHT22;61501;43.316;5.372;2022-09-28T02:19:37;17.60;92.30
73277;DHT22;61501;43.316;5.372;2022-09-28T02:25:29;17.60;93.00
73277;DHT22;61501;43.316;5.372;2022-09-28T02:28:00;17.60;92.70
73277;DHT22;61501;43.316;5.372;2022-09-28T02:30:28;17.50;92.50
73277;DHT22;61501;43.316;5.372;2022-09-28T02:32:58;17.50;92.90
73277;DHT22;61501;43.316;5.372;2022-09-28T02:35:25;17.50;92.80
73277;DHT22;61501;43.316;5.372;2022-09-28T02:37:51;17.50;92.90
73277;DHT22;61501;43.316;5.372;2022-09-28T02:40:25;17.50;93.00
73277;DHT22;61501;43.316;5.372;2022-09-28T02:43:01;17.50;93.30
73277;DHT22;61501;43.316;5.372;2022-09-28T02:45:55;17.50;92.90
73277;DHT22;61501;43.316;5.372;2022-09-28T02:48:25;17.50;93.10
73277;DHT22;61501;43.316;5.372;2022-09-28T02:50:59;17.50;93.10
73277;DHT22;61501;43.316;5.372;2022-09-28T02:59:19;17.50;93.00
73277;DHT22;61501;43.316;5.372;2022-09-28T03:07:43;17.40;92.80
73277;DHT22;61501;43.316;5.372;2022-09-28T03:10:40;17.40;92.70
73277;DHT22;61501;43.316;5.372;2022-09-28T03:13:08;17.40;92.80
73277;DHT22;61501;43.316;5.372;2022-09-28T03:15:35;17.40;92.90
73277;DHT22;61501;43.316;5.372;2022-09-28T03:18:01;17.40;92.90
73277;DHT22;61501;43.316;5.372;2022-09-28T03:20:27;17.40;93.10
73277;DHT22;61501;43.316;5.372;2022-09-28T03:22:54;17.40;93.20
73277;DHT22;61501;43.316;5.372;2022-09-28T03:25:19;17.40;93.50
73277;DHT22;61501;43.316;5.372;2022-09-28T03:27:45;17.40;93.40
73277;DHT22;61501;43.316;5.372;2022-09-28T03:30:11;17.40;93.40
73277;DHT22;61501;43.316;5.372;2022-09-28T03:32:37;17.50;93.80
73277;DHT22;61501;43.316;5.372;2022-09-28T03:35:04;17.50;93.80
73277;DHT22;61501;43.316;5.372;2022-09-28T03:37:30;17.50;94.40
73277;DHT22;61501;43.316;5.372;2022-09-28T03:39:56;17.50;94.60
73277;DHT22;61501;43.316;5.372;2022-09-28T03:42:21;17.50;94.40
73277;DHT22;61501;43.316;5.372;2022-09-28T03:44:47;17.40;94.90
73277;DHT22;61501;43.316;5.372;2022-09-28T03:47:13;17.50;95.10
73277;DHT22;61501;43.316;5.372;2022-09-28T03:49:40;17.50;94.80
73277;DHT22;61501;43.316;5.372;2022-09-28T03:52:06;17.40;94.90
73277;DHT22;61501;43.316;5.372;2022-09-28T03:54:31;17.40;95.20
73277;DHT22;61501;43.316;5.372;2022-09-28T03:56:57;17.40;95.00
73277;DHT22;61501;43.316;5.372;2022-09-28T03:59:22;17.40;95.20
73277;DHT22;61501;43.316;5.372;2022-09-28T04:01:49;17.40;95.00
73277;DHT22;61501;43.316;5.372;2022-09-28T04:04:14;17.50;95.60
73277;DHT22;61501;43.316;5.372;2022-09-28T04:06:40;17.50;95.50
73277;DHT22;61501;43.316;5.372;2022-09-28T04:09:06;17.40;95.70
73277;DHT22;61501;43.316;5.372;2022-09-28T04:11:32;17.40;95.60
73277;DHT22;61501;43.316;5.372;2022-09-28T04:13:58;17.40;95.50
73277;DHT22;61501;43.316;5.372;2022-09-28T04:16:23;17.40;95.60
73277;DHT22;61501;43.316;5.372;2022-09-28T04:18:49;17.40;95.60
73277;DHT22;61501;43.316;5.372;2022-09-28T04:21:16;17.40;95.80
73277;DHT22;61501;43.316;5.372;2022-09-28T04:23:43;17.40;95.90
73277;DHT22;61501;43.316;5.372;2022-09-28T04:26:20;17.40;96.20
73277;DHT22;61501;43.316;5.372;2022-09-28T04:28:47;17.30;96.50
73277;DHT22;61501;43.316;5.372;2022-09-28T04:31:52;17.40;96.50
73277;DHT22;61501;43.316;5.372;2022-09-28T04:34:20;17.40;96.70
73277;DHT22;61501;43.316;5.372;2022-09-28T04:36:46;17.40;96.80
73277;DHT22;61501;43.316;5.372;2022-09-28T04:39:13;17.40;96.50
73277;DHT22;61501;43.316;5.372;2022-09-28T04:41:40;17.40;96.30
73277;DHT22;61501;43.316;5.372;2022-09-28T04:44:06;17.40;96.30
73277;DHT22;61501;43.316;5.372;2022-09-28T04:46:32;17.40;96.40
73277;DHT22;61501;43.316;5.372;2022-09-28T04:48:58;17.40;96.50
73277;DHT22;61501;43.316;5.372;2022-09-28T04:51:24;17.40;96.50
73277;DHT22;61501;43.316;5.372;2022-09-28T04:53:49;17.40;96.70
73277;DHT22;61501;43.316;5.372;2022-09-28T04:56:16;17.40;97.20
73277;DHT22;61501;43.316;5.372;2022-09-28T04:58:43;17.50;97.00
73277;DHT22;61501;43.316;5.372;2022-09-28T05:01:14;17.50;97.10
73277;DHT22;61501;43.316;5.372;2022-09-28T05:03:40;17.60;96.90
73277;DHT22;61501;43.316;5.372;2022-09-28T05:06:06;17.50;97.10
73277;DHT22;61501;43.316;5.372;2022-09-28T05:08:33;17.50;97.30
73277;DHT22;61501;43.316;5.372;2022-09-28T05:11:04;17.50;97.60
73277;DHT22;61501;43.316;5.372;2022-09-28T05:13:32;17.50;97.70
73277;DHT22;61501;43.316;5.372;2022-09-28T05:15:58;17.50;98.70
73277;DHT22;61501;43.316;5.372;2022-09-28T05:18:24;17.60;98.20
73277;DHT22;61501;43.316;5.372;2022-09-28T05:20:50;17.60;98.40
73277;DHT22;61501;43.316;5.372;2022-09-28T05:23:16;17.50;99.20
73277;DHT22;61501;43.316;5.372;2022-09-28T05:25:42;17.50;98.30
73277;DHT22;61501;43.316;5.372;2022-09-28T05:28:08;17.50;99.20
73277;DHT22;61501;43.316;5.372;2022-09-28T05:30:34;17.50;99.00
73277;DHT22;61501;43.316;5.372;2022-09-28T05:33:01;17.50;99.90
73277;DHT22;61501;43.316;5.372;2022-09-28T05:35:27;17.50;99.90
73277;DHT22;61501;43.316;5.372;2022-09-28T05:37:54;17.50;99.90
73277;DHT22;61501;43.316;5.372;2022-09-28T05:40:20;17.60;99.90
73277;DHT22;61501;43.316;5.372;2022-09-28T05:42:46;17.70;99.90
73277;DHT22;61501;43.316;5.372;2022-09-28T05:45:11;17.70;99.90
73277;DHT22;61501;43.316;5.372;2022-09-28T05:47:39;17.60;99.90
73277;DHT22;61501;43.316;5.372;2022-09-28T05:50:06;17.60;99.90
73277;DHT22;61501;43.316;5.372;2022-09-28T05:52:32;17.70;99.90
73277;DHT22;61501;43.316;5.372;2022-09-28T05:54:58;17.70;99.90
73277;DHT22;61501;43.316;5.372;2022-09-28T05:57:23;17.80;99.90
73277;DHT22;61501;43.316;5.372;2022-09-28T05:59:49;17.80;99.90
73277;DHT22;61501;43.316;5.372;2022-09-28T06:02:15;17.80;99.90
73277;DHT22;61501;43.316;5.372;2022-09-28T06:04:40;17.90;99.90
73277;DHT22;61501;43.316;5.372;2022-09-28T06:07:06;18.00;99.90
73277;DHT22;61501;43.316;5.372;2022-09-28T06:09:31;18.00;99.90
73277;DHT22;61501;43.316;5.372;2022-09-28T06:11:58;18.00;99.90
73277;DHT22;61501;43.316;5.372;2022-09-28T06:14:24;18.00;99.90
73277;DHT22;61501;43.316;5.372;2022-09-28T06:16:50;18.10;99.90
73277;DHT22;61501;43.316;5.372;2022-09-28T06:19:16;18.10;99.90
73277;DHT22;61501;43.316;5.372;2022-09-28T06:21:42;18.10;99.90
73277;DHT22;61501;43.316;5.372;2022-09-28T06:24:08;18.20;99.90
73277;DHT22;61501;43.316;5.372;2022-09-28T06:26:34;18.30;99.90
73277;DHT22;61501;43.316;5.372;2022-09-28T06:28:59;18.30;99.90
73277;DHT22;61501;43.316;5.372;2022-09-28T06:31:25;18.20;99.90
73277;DHT22;61501;43.316;5.372;2022-09-28T06:33:51;18.20;99.90
73277;DHT22;61501;43.316;5.372;2022-09-28T06:36:18;18.20;99.90
73277;DHT22;61501;43.316;5.372;2022-09-28T06:38:44;18.20;99.90
73277;DHT22;61501;43.316;5.372;2022-09-28T06:41:10;18.20;99.90
73277;DHT22;61501;43.316;5.372;2022-09-28T06:43:36;18.30;99.90
73277;DHT22;61501;43.316;5.372;2022-09-28T06:46:05;18.30;99.90
73277;DHT22;61501;43.316;5.372;2022-09-28T06:48:32;18.40;99.90
73277;DHT22;61501;43.316;5.372;2022-09-28T06:50:58;18.40;99.90
73277;DHT22;61501;43.316;5.372;2022-09-28T06:53:25;18.40;99.90
73277;DHT22;61501;43.316;5.372;2022-09-28T06:55:51;18.50;99.90
73277;DHT22;61501;43.316;5.372;2022-09-28T06:58:18;18.50;99.90
73277;DHT22;61501;43.316;5.372;2022-09-28T07:00:46;18.50;99.90
73277;DHT22;61501;43.316;5.372;2022-09-28T07:03:17;18.60;99.90
73277;DHT22;61501;43.316;5.372;2022-09-28T07:05:46;18.70;99.90
73277;DHT22;61501;43.316;5.372;2022-09-28T07:08:14;18.70;99.90
73277;DHT22;61501;43.316;5.372;2022-09-28T07:10:44;18.90;99.90
73277;DHT22;61501;43.316;5.372;2022-09-28T07:13:10;19.10;99.90
73277;DHT22;61501;43.316;5.372;2022-09-28T07:15:38;19.20;99.90
73277;DHT22;61501;43.316;5.372;2022-09-28T07:18:06;19.30;99.90
73277;DHT22;61501;43.316;5.372;2022-09-28T07:20:33;19.30;99.90
73277;DHT22;61501;43.316;5.372;2022-09-28T07:23:01;19.40;99.90
73277;DHT22;61501;43.316;5.372;2022-09-28T07:25:27;19.50;99.90
73277;DHT22;61501;43.316;5.372;2022-09-28T07:27:57;19.30;99.90
73277;DHT22;61501;43.316;5.372;2022-09-28T07:30:25;19.30;99.90
73277;DHT22;61501;43.316;5.372;2022-09-28T07:32:54;19.20;99.80
73277;DHT22;61501;43.316;5.372;2022-09-28T07:35:21;19.40;99.60
73277;DHT22;61501;43.316;5.372;2022-09-28T07:37:47;19.60;97.80
73277;DHT22;61501;43.316;5.372;2022-09-28T07:40:12;19.70;98.00
73277;DHT22;61501;43.316;5.372;2022-09-28T07:43:03;19.70;97.40
73277;DHT22;61501;43.316;5.372;2022-09-28T07:45:29;19.70;97.30
73277;DHT22;61501;43.316;5.372;2022-09-28T07:47:58;19.60;97.90
73277;DHT22;61501;43.316;5.372;2022-09-28T07:50:23;19.60;97.60
73277;DHT22;61501;43.316;5.372;2022-09-28T07:52:49;19.60;97.00
73277;DHT22;61501;43.316;5.372;2022-09-28T07:55:15;19.80;96.90
73277;DHT22;61501;43.316;5.372;2022-09-28T07:57:40;19.70;97.00
73277;DHT22;61501;43.316;5.372;2022-09-28T08:00:06;19.70;97.20
73277;DHT22;61501;43.316;5.372;2022-09-28T08:02:34;19.70;96.70
73277;DHT22;61501;43.316;5.372;2022-09-28T08:05:00;19.80;96.70
73277;DHT22;61501;43.316;5.372;2022-09-28T08:07:27;19.80;97.10
73277;DHT22;61501;43.316;5.372;2022-09-28T08:09:52;19.90;96.90
73277;DHT22;61501;43.316;5.372;2022-09-28T08:12:18;19.90;95.90
73277;DHT22;61501;43.316;5.372;2022-09-28T08:14:46;19.90;96.50
73277;DHT22;61501;43.316;5.372;2022-09-28T08:17:12;19.90;97.60
73277;DHT22;61501;43.316;5.372;2022-09-28T08:19:37;19.90;97.00
73277;DHT22;61501;43.316;5.372;2022-09-28T08:22:22;19.90;96.40
73277;DHT22;61501;43.316;5.372;2022-09-28T08:24:47;19.90;98.00
73277;DHT22;61501;43.316;5.372;2022-09-28T08:27:14;19.90;97.50
73277;DHT22;61501;43.316;5.372;2022-09-28T08:29:41;19.90;97.30
73277;DHT22;61501;43.316;5.372;2022-09-28T08:32:08;20.00;96.60
73277;DHT22;61501;43.316;5.372;2022-09-28T08:34:35;20.00;96.20
73277;DHT22;61501;43.316;5.372;2022-09-28T08:37:01;20.00;96.30
73277;DHT22;61501;43.316;5.372;2022-09-28T08:39:26;20.10;95.60
73277;DHT22;61501;43.316;5.372;2022-09-28T08:42:07;20.20;96.10
73277;DHT22;61501;43.316;5.372;2022-09-28T08:44:53;20.20;95.80
73277;DHT22;61501;43.316;5.372;2022-09-28T08:47:48;20.20;94.40
73277;DHT22;61501;43.316;5.372;2022-09-28T08:50:44;20.30;95.20
73277;DHT22;61501;43.316;5.372;2022-09-28T08:53:43;20.30;96.20
73277;DHT22;61501;43.316;5.372;2022-09-28T08:56:16;20.40;95.90
73277;DHT22;61501;43.316;5.372;2022-09-28T08:58:44;20.40;95.50
73277;DHT22;61501;43.316;5.372;2022-09-28T09:01:14;20.50;96.30
73277;DHT22;61501;43.316;5.372;2022-09-28T09:03:43;20.50;94.00
73277;DHT22;61501;43.316;5.372;2022-09-28T09:22:59;20.40;94.00
73277;DHT22;61501;43.316;5.372;2022-09-28T09:30:43;20.60;93.90
73277;DHT22;61501;43.316;5.372;2022-09-28T09:33:31;20.70;92.40
73277;DHT22;61501;43.316;5.372;2022-09-28T09:36:15;20.80;94.30
73277;DHT22;61501;43.316;5.372;2022-09-28T09:38:46;20.80;93.70
73277;DHT22;61501;43.316;5.372;2022-09-28T09:41:45;20.80;96.50
73277;DHT22;61501;43.316;5.372;2022-09-28T09:47:16;20.90;93.20
73277;DHT22;61501;43.316;5.372;2022-09-28T09:52:39;20.80;98.10
73277;DHT22;61501;43.316;5.372;2022-09-28T10:00:24;20.60;99.10
73277;DHT22;61501;43.316;5.372;2022-09-28T10:02:50;20.30;99.90
73277;DHT22;61501;43.316;5.372;2022-09-28T10:05:23;20.30;99.90
73277;DHT22;61501;43.316;5.372;2022-09-28T10:10:36;20.20;99.90
73277;DHT22;61501;43.316;5.372;2022-09-28T10:13:02;20.20;99.90
73277;DHT22;61501;43.316;5.372;2022-09-28T10:15:31;20.30;99.80
73277;DHT22;61501;43.316;5.372;2022-09-28T10:18:00;20.30;99.60
73277;DHT22;61501;43.316;5.372;2022-09-28T10:20:30;20.40;99.30
73277;DHT22;61501;43.316;5.372;2022-09-28T10:22:58;20.30;98.30
73277;DHT22;61501;43.316;5.372;2022-09-28T10:25:28;20.30;99.60
73277;DHT22;61501;43.316;5.372;2022-09-28T10:27:55;20.30;97.80
73277;DHT22;61501;43.316;5.372;2022-09-28T10:30:24;20.30;97.50
73277;DHT22;61501;43.316;5.372;2022-09-28T10:32:52;20.30;97.60
73277;DHT22;61501;43.316;5.372;2022-09-28T10:35:28;20.30;97.40
73277;DHT22;61501;43.316;5.372;2022-09-28T10:40:54;20.40;97.30
73277;DHT22;61501;43.316;5.372;2022-09-28T10:43:50;20.30;98.50
73277;DHT22;61501;43.316;5.372;2022-09-28T10:46:31;20.20;99.50
73277;DHT22;61501;43.316;5.372;2022-09-28T10:49:15;20.20;99.90
73277;DHT22;61501;43.316;5.372;2022-09-28T10:54:24;20.10;97.90
73277;DHT22;61501;43.316;5.372;2022-09-28T10:56:52;20.10;98.80
73277;DHT22;61501;43.316;5.372;2022-09-28T10:59:35;20.10;99.10
73277;DHT22;61501;43.316;5.372;2022-09-28T11:04:39;20.10;98.40
73277;DHT22;61501;43.316;5.372;2022-09-28T11:07:17;20.20;98.40
73277;DHT22;61501;43.316;5.372;2022-09-28T11:09:46;20.30;97.80
73277;DHT22;61501;43.316;5.372;2022-09-28T11:12:15;20.20;97.50
73277;DHT22;61501;43.316;5.372;2022-09-28T11:14:42;20.20;98.10
73277;DHT22;61501;43.316;5.372;2022-09-28T11:17:23;20.10;99.00
73277;DHT22;61501;43.316;5.372;2022-09-28T11:24:48;20.30;97.60
73277;DHT22;61501;43.316;5.372;2022-09-28T11:27:22;20.40;97.00
73277;DHT22;61501;43.316;5.372;2022-09-28T11:29:57;20.30;98.00
73277;DHT22;61501;43.316;5.372;2022-09-28T11:58:28;21.10;94.70
73277;DHT22;61501;43.316;5.372;2022-09-28T12:01:07;21.40;94.30
73277;DHT22;61501;43.316;5.372;2022-09-28T12:06:19;21.80;93.90
73277;DHT22;61501;43.316;5.372;2022-09-28T12:08:51;21.90;92.30
73277;DHT22;61501;43.316;5.372;2022-09-28T12:28:55;22.00;93.40
73277;DHT22;61501;43.316;5.372;2022-09-28T12:31:28;21.00;96.30
73277;DHT22;61501;43.316;5.372;2022-09-28T12:33:56;20.80;97.30
73277;DHT22;61501;43.316;5.372;2022-09-28T12:39:35;20.70;98.90
73277;DHT22;61501;43.316;5.372;2022-09-28T12:42:20;21.10;96.70
73277;DHT22;61501;43.316;5.372;2022-09-28T13:14:43;21.10;95.10
73277;DHT22;61501;43.316;5.372;2022-09-28T13:19:54;21.70;92.80
73277;DHT22;61501;43.316;5.372;2022-09-28T13:23:03;21.30;94.50
73277;DHT22;61501;43.316;5.372;2022-09-28T13:25:32;21.80;93.00
73277;DHT22;61501;43.316;5.372;2022-09-28T13:30:27;21.80;93.80
